KPWA

Wiley Post Airport

Oklahoma City, Oklahoma, USA
METAR KPWA 181253Z 18009KT 10SM CLR 07/03 A3006 RMK AO2 SLP182 T00720033
Observed Flight Rules
Dec-18 @ 12:53 UTC (47 minutes ago) Visual Flight Rules
Wind Visibility Clouds
180° at 9 knots 10 miles
  • Clear skies
Temperatures Readings
Current 7°C / 45°F
Dewpoint 3°C / 37°F
Humidity 76%
Altimeter 30.06" Hg
Pressure 1018.2 hPa
Elevation 397
METAR KPWA 181253Z 18009KT 10SM CLR 07/03 A3006 RMK AO2 SLP182 T00720033
Observed Flight Rules
Dec-18 @ 12:53 UTC
(47 minutes ago)
VFR
Wind Visibility
180° at 9 knots 10 miles
Clouds
  • Clear skies
Temperature Dewpoint
7°C / 45°F 3°C / 37°F
Humidity Altimeter Pressure
76% 30.06" Hg 1018.2 hPa